Terminal Aerodrome Forecast
Issued by NWS Hastings, NE

Current Version | Previous Version | Text Only | Print | Product List | Glossary On
Versions: 1 2 3 4 5 6 7 8 9 10 11 12 13 14 15 16 17 18 19 20 21
000
FTUS45 KGID 282320
TAFEAR
TAF
KEAR 282320Z 2900/2924 02008KT P6SM OVC025
     FM290600 04007KT P6SM BKN045
     FM290900 05008KT P6SM VCSH OVC050
     FM291200 04010KT P6SM -SHRA OVC015
     FM291300 04011KT P6SM -SHRA OVC010
     FM291900 05013KT 5SM SHRA OVC015
      AMD LTD TO CLD VIS AND WIND=

USA.gov is the U.S. government's official web portal to all federal, state and local government web resources and services.